createdAt,value
2018-06-11T00:00:58.261Z,0
2018-06-11T00:02:00.651Z,0
2018-06-11T00:03:02.639Z,0
2018-06-11T00:04:04.638Z,0
2018-06-11T00:05:06.640Z,0
2018-06-11T00:06:08.925Z,0
2018-06-11T00:07:10.925Z,0
2018-06-11T00:08:12.921Z,0
2018-06-11T00:09:14.929Z,0
2018-06-11T00:10:17.211Z,0
2018-06-11T00:11:19.204Z,0
2018-06-11T00:12:21.494Z,0
2018-06-11T00:13:23.499Z,0
2018-06-11T00:14:25.503Z,0
2018-06-11T00:15:27.791Z,0
2018-06-11T00:16:29.790Z,0
2018-06-11T00:17:31.825Z,0
2018-06-11T00:18:34.183Z,0
2018-06-11T00:19:36.561Z,0
2018-06-11T00:20:38.561Z,0
2018-06-11T00:21:40.561Z,0
2018-06-11T00:22:42.836Z,0
2018-06-11T00:23:44.838Z,0
2018-06-11T00:24:47.124Z,0
2018-06-11T00:25:49.125Z,0
2018-06-11T00:26:51.420Z,0
2018-06-11T00:27:53.412Z,0
2018-06-11T00:28:55.695Z,0
2018-06-11T00:29:57.694Z,0
2018-06-11T00:30:59.693Z,0
2018-06-11T00:32:01.695Z,0
2018-06-11T00:33:03.690Z,0
2018-06-11T00:34:05.699Z,0
2018-06-11T00:35:07.707Z,0
2018-06-11T00:36:09.695Z,0
2018-06-11T00:37:11.703Z,0
2018-06-11T00:38:13.699Z,0
2018-06-11T00:39:15.702Z,0
2018-06-11T00:40:17.711Z,0
2018-06-11T00:41:19.704Z,0
2018-06-11T00:42:21.710Z,0
2018-06-11T00:43:23.988Z,0
2018-06-11T00:44:25.989Z,0
2018-06-11T00:45:28.272Z,0
2018-06-11T00:46:30.275Z,0
2018-06-11T00:47:32.270Z,0
2018-06-11T00:48:34.274Z,0
2018-06-11T00:49:36.268Z,0
2018-06-11T00:50:38.267Z,0
2018-06-11T00:51:40.270Z,0
2018-06-11T00:52:42.274Z,0
2018-06-11T00:53:44.270Z,0
2018-06-11T00:54:46.269Z,0
2018-06-11T00:55:48.645Z,0
2018-06-11T00:56:50.647Z,0
2018-06-11T00:57:53.035Z,0
2018-06-11T00:58:55.038Z,0
2018-06-11T00:59:57.299Z,0
2018-06-11T01:00:59.297Z,0
2018-06-11T01:02:01.303Z,0
2018-06-11T01:03:03.305Z,0
2018-06-11T01:04:05.303Z,0
2018-06-11T01:05:07.313Z,0
2018-06-11T01:06:09.607Z,0
2018-06-11T01:07:11.604Z,0
2018-06-11T01:08:13.604Z,0
2018-06-11T01:09:15.912Z,0
2018-06-11T01:10:17.916Z,0
2018-06-11T01:11:19.920Z,0
2018-06-11T01:12:22.298Z,0
2018-06-11T01:13:24.296Z,0
2018-06-11T01:14:26.968Z,0
2018-06-11T01:15:29.347Z,0
2018-06-11T01:16:31.623Z,0
2018-06-11T01:17:33.622Z,0
2018-06-11T01:18:35.619Z,0
2018-06-11T01:19:38.197Z,0
2018-06-11T01:20:40.197Z,0
2018-06-11T01:21:42.208Z,0
2018-06-11T01:22:44.209Z,0
2018-06-11T01:23:46.201Z,0
2018-06-11T01:24:48.203Z,0
2018-06-11T01:25:50.784Z,0
2018-06-11T01:26:52.783Z,0
2018-06-11T01:27:54.785Z,0
2018-06-11T01:28:57.173Z,0
2018-06-11T01:29:59.459Z,0
2018-06-11T01:31:01.444Z,0
2018-06-11T01:32:03.444Z,0
2018-06-11T01:33:05.731Z,0
2018-06-11T01:34:07.735Z,0
2018-06-11T01:35:09.732Z,0
2018-06-11T01:36:11.740Z,0
2018-06-11T01:37:13.751Z,0
2018-06-11T01:38:15.747Z,0
2018-06-11T01:39:18.311Z,0
2018-06-11T01:40:20.595Z,0
2018-06-11T01:41:22.600Z,0
2018-06-11T01:42:24.598Z,0
2018-06-11T01:43:26.595Z,0
2018-06-11T01:44:28.876Z,0
2018-06-11T01:45:30.878Z,0
2018-06-11T01:46:32.877Z,0
2018-06-11T01:47:34.873Z,0
2018-06-11T01:48:36.872Z,0
2018-06-11T01:49:38.875Z,0
2018-06-11T01:50:41.150Z,0
2018-06-11T01:51:43.146Z,0
2018-06-11T01:52:45.147Z,0
2018-06-11T01:53:47.152Z,0
2018-06-11T01:54:49.143Z,0
2018-06-11T01:55:51.143Z,0
2018-06-11T01:56:53.152Z,0
2018-06-11T01:57:55.154Z,0
2018-06-11T01:58:57.160Z,0
2018-06-11T01:59:59.157Z,0
2018-06-11T02:01:01.157Z,0
2018-06-11T02:02:04.029Z,0
2018-06-11T02:03:06.017Z,0
2018-06-11T02:04:08.032Z,0
2018-06-11T02:05:10.030Z,0
2018-06-11T02:06:12.319Z,0
2018-06-11T02:07:14.321Z,0
2018-06-11T02:08:16.312Z,0
2018-06-11T02:09:18.313Z,0
2018-06-11T02:10:20.309Z,0
2018-06-11T02:11:22.304Z,0
2018-06-11T02:12:24.304Z,0
2018-06-11T02:13:26.311Z,0
2018-06-11T02:14:28.312Z,0
2018-06-11T02:15:30.301Z,0
2018-06-11T02:16:32.304Z,0
2018-06-11T02:17:34.303Z,0
2018-06-11T02:18:36.586Z,0
2018-06-11T02:19:38.580Z,0
2018-06-11T02:20:40.857Z,0
2018-06-11T02:21:43.259Z,0
2018-06-11T02:22:45.256Z,0
2018-06-11T02:23:47.935Z,0
2018-06-11T02:24:50.225Z,0
2018-06-11T02:25:52.223Z,0
2018-06-11T02:26:54.223Z,0
2018-06-11T02:27:56.608Z,0
2018-06-11T02:28:58.608Z,0
2018-06-11T02:30:01.006Z,0
2018-06-11T02:31:03.661Z,0
2018-06-11T02:32:05.660Z,0
2018-06-11T02:33:07.660Z,0
2018-06-11T02:34:10.039Z,0
2018-06-11T02:35:12.318Z,0
2018-06-11T02:36:14.323Z,0
2018-06-11T02:37:16.882Z,0
2018-06-11T02:38:18.889Z,0
2018-06-11T02:39:20.880Z,0
2018-06-11T02:40:22.886Z,0
2018-06-11T02:41:24.892Z,1
2018-06-11T02:42:26.898Z,1
2018-06-11T02:43:28.899Z,1
2018-06-11T02:44:31.485Z,1
2018-06-11T02:45:33.756Z,1
2018-06-11T02:46:36.427Z,1
2018-06-11T02:47:38.708Z,1
2018-06-11T02:48:40.706Z,1
2018-06-11T02:49:42.708Z,1
2018-06-11T02:50:44.990Z,1
2018-06-11T02:51:47.000Z,1
2018-06-11T02:52:49.290Z,1
2018-06-11T02:53:51.286Z,1
2018-06-11T02:54:53.283Z,1
2018-06-11T02:55:55.290Z,1
2018-06-11T02:56:57.568Z,1
2018-06-11T02:57:59.563Z,2
2018-06-11T02:59:01.561Z,2
2018-06-11T03:00:04.225Z,2
2018-06-11T03:01:06.223Z,2
2018-06-11T03:02:08.226Z,2
2018-06-11T03:03:10.624Z,2
2018-06-11T03:04:12.625Z,3
2018-06-11T03:05:14.899Z,3
2018-06-11T03:06:17.184Z,3
2018-06-11T03:07:19.205Z,3
2018-06-11T03:08:21.201Z,3
2018-06-11T03:09:23.484Z,3
2018-06-11T03:10:25.490Z,3
2018-06-11T03:11:27.487Z,3
2018-06-11T03:12:29.478Z,4
2018-06-11T03:13:31.475Z,4
2018-06-11T03:14:33.467Z,4
2018-06-11T03:15:35.496Z,4
2018-06-11T03:16:37.743Z,4
2018-06-11T03:17:39.733Z,4
2018-06-11T03:18:41.740Z,4
2018-06-11T03:19:43.739Z,4
2018-06-11T03:20:45.738Z,5
2018-06-11T03:21:47.739Z,4
2018-06-11T03:22:49.736Z,4
2018-06-11T03:23:51.738Z,4
2018-06-11T03:24:53.723Z,4
2018-06-11T03:25:56.001Z,4
2018-06-11T03:26:58.011Z,4
2018-06-11T03:28:00.008Z,4
2018-06-11T03:29:02.284Z,4
2018-06-11T03:30:04.290Z,4
2018-06-11T03:31:06.294Z,4
2018-06-11T03:32:08.963Z,4
2018-06-11T03:33:11.255Z,5
2018-06-11T03:34:13.249Z,6
2018-06-11T03:35:15.245Z,6
2018-06-11T03:36:17.253Z,7
2018-06-11T03:37:19.240Z,8
2018-06-11T03:38:21.528Z,9
2018-06-11T03:39:23.517Z,10
2018-06-11T03:40:25.516Z,10
2018-06-11T03:41:27.523Z,11
2018-06-11T03:42:29.827Z,11
2018-06-11T03:43:31.847Z,12
2018-06-11T03:44:34.131Z,12
2018-06-11T03:45:36.113Z,12
2018-06-11T03:46:38.119Z,13
2018-06-11T03:47:40.121Z,13
2018-06-11T03:48:42.121Z,14
2018-06-11T03:49:44.123Z,14
2018-06-11T03:50:46.121Z,15
2018-06-11T03:51:48.122Z,15
2018-06-11T03:52:50.556Z,15
2018-06-11T03:53:52.462Z,16
2018-06-11T03:54:54.461Z,16
2018-06-11T03:55:56.461Z,16
2018-06-11T03:56:58.459Z,15
2018-06-11T03:58:01.032Z,15
2018-06-11T03:59:03.026Z,15
2018-06-11T04:00:05.028Z,15
2018-06-11T04:01:07.318Z,15
2018-06-11T04:02:09.323Z,16
2018-06-11T04:03:11.323Z,16
2018-06-11T04:04:13.312Z,16
2018-06-11T04:05:15.310Z,16
2018-06-11T04:06:17.592Z,16
2018-06-11T04:07:19.591Z,17
2018-06-11T04:08:21.588Z,17
2018-06-11T04:09:23.573Z,17
2018-06-11T04:10:25.579Z,18
2018-06-11T04:11:27.866Z,18
2018-06-11T04:12:29.870Z,19
2018-06-11T04:13:31.862Z,19
2018-06-11T04:14:33.855Z,20
2018-06-11T04:15:35.853Z,21
2018-06-11T04:16:38.232Z,23
2018-06-11T04:17:40.227Z,23
2018-06-11T04:18:42.534Z,21
2018-06-11T04:19:44.535Z,20
2018-06-11T04:20:46.834Z,21
2018-06-11T04:21:48.831Z,21
2018-06-11T04:22:50.838Z,21
2018-06-11T04:23:53.138Z,21
2018-06-11T04:24:55.146Z,21
2018-06-11T04:25:57.139Z,21
2018-06-11T04:26:59.517Z,22
2018-06-11T04:28:01.828Z,22
2018-06-11T04:29:03.823Z,23
2018-06-11T04:30:05.828Z,22
2018-06-11T04:31:07.842Z,23
2018-06-11T04:32:10.441Z,23
2018-06-11T04:33:12.523Z,23
2018-06-11T04:34:14.551Z,23
2018-06-11T04:35:16.559Z,24
2018-06-11T04:36:18.563Z,25
2018-06-11T04:37:20.849Z,25
2018-06-11T04:38:22.853Z,27
2018-06-11T04:39:24.853Z,28
2018-06-11T04:40:27.137Z,30
2018-06-11T04:41:29.598Z,31
2018-06-11T04:42:31.583Z,31
2018-06-11T04:43:34.229Z,31
2018-06-11T04:44:36.520Z,31
2018-06-11T04:45:38.976Z,32
2018-06-11T04:46:41.009Z,33
2018-06-11T04:47:43.012Z,35
2018-06-11T04:48:45.745Z,35
2018-06-11T04:49:47.765Z,33
2018-06-11T04:50:49.813Z,32
2018-06-11T04:51:51.846Z,32
2018-06-11T04:52:53.847Z,36
2018-06-11T04:53:55.849Z,37
2018-06-11T04:54:58.135Z,36
2018-06-11T04:56:00.135Z,38
2018-06-11T04:57:02.515Z,37
2018-06-11T04:58:04.528Z,36
2018-06-11T04:59:06.903Z,35
2018-06-11T05:00:09.188Z,37
2018-06-11T05:01:11.471Z,38
2018-06-11T05:02:13.463Z,40
2018-06-11T05:03:15.465Z,35
2018-06-11T05:04:17.467Z,34
2018-06-11T05:05:19.466Z,34
2018-06-11T05:06:21.470Z,37
2018-06-11T05:07:23.461Z,40
2018-06-11T05:08:25.466Z,45
2018-06-11T05:09:27.459Z,42
2018-06-11T05:10:29.734Z,42
2018-06-11T05:11:31.733Z,41
2018-06-11T05:12:34.022Z,38
2018-06-11T05:13:36.020Z,36
2018-06-11T05:14:38.021Z,40
2018-06-11T05:15:40.021Z,47
2018-06-11T05:16:42.306Z,46
2018-06-11T05:17:44.292Z,42
2018-06-11T05:18:46.293Z,41
2018-06-11T05:19:48.291Z,43
2018-06-11T05:20:50.281Z,45
2018-06-11T05:21:52.281Z,47
2018-06-11T05:22:54.275Z,44
2018-06-11T05:23:56.662Z,41
2018-06-11T05:24:59.335Z,40
2018-06-11T05:26:02.005Z,43
2018-06-11T05:27:04.668Z,47
2018-06-11T05:28:06.667Z,54
2018-06-11T05:29:08.668Z,50
2018-06-11T05:30:10.666Z,46
2018-06-11T05:31:12.660Z,46
2018-06-11T05:32:14.673Z,49
2018-06-11T05:33:16.668Z,50
2018-06-11T05:34:18.950Z,49
2018-06-11T05:35:20.948Z,48
2018-06-11T05:36:22.943Z,49
2018-06-11T05:37:25.332Z,52
2018-06-11T05:38:27.335Z,52
2018-06-11T05:39:29.332Z,54
2018-06-11T05:40:31.374Z,56
2018-06-11T05:41:33.612Z,57
2018-06-11T05:42:35.613Z,57
2018-06-11T05:43:37.617Z,58
2018-06-11T05:44:39.618Z,58
2018-06-11T05:45:41.893Z,56
2018-06-11T05:46:43.880Z,55
2018-06-11T05:47:45.882Z,58
2018-06-11T05:48:47.894Z,59
2018-06-11T05:49:49.889Z,58
2018-06-11T05:50:51.893Z,58
2018-06-11T05:51:53.893Z,57
2018-06-11T05:52:56.172Z,56
2018-06-11T05:53:58.743Z,56
2018-06-11T05:55:00.737Z,56
2018-06-11T05:56:03.058Z,56
2018-06-11T05:57:05.057Z,58
2018-06-11T05:58:07.050Z,56
2018-06-11T05:59:09.049Z,52
2018-06-11T06:00:11.046Z,50
2018-06-11T06:01:13.049Z,47
2018-06-11T06:02:15.052Z,43
2018-06-11T06:03:17.070Z,39
2018-06-11T06:04:19.050Z,39
2018-06-11T06:05:21.058Z,38
2018-06-11T06:06:23.055Z,37
2018-06-11T06:07:25.042Z,38
2018-06-11T06:08:27.048Z,39
2018-06-11T06:09:29.328Z,38
2018-06-11T06:10:31.711Z,36
2018-06-11T06:11:33.709Z,36
2018-06-11T06:12:35.711Z,36
2018-06-11T06:13:38.286Z,38
2018-06-11T06:14:40.557Z,38
2018-06-11T06:15:42.858Z,37
2018-06-11T06:16:45.187Z,37
2018-06-11T06:17:47.186Z,36
2018-06-11T06:18:49.182Z,31
2018-06-11T06:19:51.181Z,30
2018-06-11T06:20:53.462Z,36
2018-06-11T06:21:55.734Z,38
2018-06-11T06:22:57.735Z,40
2018-06-11T06:23:59.734Z,41
2018-06-11T06:25:02.034Z,41
2018-06-11T06:26:04.336Z,40
2018-06-11T06:27:06.715Z,42
2018-06-11T06:28:08.719Z,43
2018-06-11T06:29:10.714Z,43
2018-06-11T06:30:12.716Z,44
2018-06-11T06:31:14.719Z,45
2018-06-11T06:32:17.100Z,48
2018-06-11T06:33:19.106Z,48
2018-06-11T06:34:21.536Z,47
2018-06-11T06:35:23.863Z,48
2018-06-11T06:36:25.875Z,50
2018-06-11T06:37:27.870Z,50
2018-06-11T06:38:30.137Z,49
2018-06-11T06:39:32.424Z,49
2018-06-11T06:40:35.434Z,48
2018-06-11T06:41:37.310Z,46
2018-06-11T06:42:39.314Z,50
2018-06-11T06:43:41.597Z,55
2018-06-11T06:44:43.598Z,57
2018-06-11T06:45:45.608Z,57
2018-06-11T06:46:47.602Z,54
2018-06-11T06:47:49.606Z,53
2018-06-11T06:48:51.887Z,54
2018-06-11T06:49:53.892Z,53
2018-06-11T06:50:55.894Z,58
2018-06-11T06:51:58.871Z,60
2018-06-11T06:53:00.897Z,63
2018-06-11T06:54:02.922Z,63
2018-06-11T06:55:04.906Z,60
2018-06-11T06:56:06.967Z,60
2018-06-11T06:57:08.967Z,59
2018-06-11T06:58:10.992Z,58
2018-06-11T06:59:13.046Z,63
2018-06-11T07:00:15.671Z,67
2018-06-11T07:01:17.683Z,73
2018-06-11T07:02:19.703Z,72
2018-06-11T07:03:21.737Z,62
2018-06-11T07:04:23.747Z,55
2018-06-11T07:05:25.755Z,60
2018-06-11T07:06:27.856Z,70
2018-06-11T07:07:29.859Z,73
2018-06-11T07:08:31.860Z,71
2018-06-11T07:09:33.898Z,70
2018-06-11T07:10:36.199Z,73
2018-06-11T07:11:38.312Z,80
2018-06-11T07:12:40.314Z,87
2018-06-11T07:13:42.547Z,94
2018-06-11T07:14:44.524Z,96
2018-06-11T07:15:46.527Z,90
2018-06-11T07:16:48.631Z,86
2018-06-11T07:17:51.021Z,79
2018-06-11T07:18:53.013Z,74
2018-06-11T07:19:55.251Z,68
2018-06-11T07:20:57.318Z,66
2018-06-11T07:21:59.326Z,63
2018-06-11T07:23:01.332Z,59
2018-06-11T07:24:03.337Z,55
2018-06-11T07:25:05.349Z,54
2018-06-11T07:26:07.722Z,55
2018-06-11T07:27:10.171Z,58
2018-06-11T07:28:12.157Z,63
2018-06-11T07:29:14.432Z,66
2018-06-11T07:30:16.435Z,67
2018-06-11T07:31:18.442Z,68
2018-06-11T07:32:20.440Z,73
2018-06-11T07:33:22.458Z,81
2018-06-11T07:34:24.454Z,85
2018-06-11T07:35:26.501Z,91
2018-06-11T07:36:28.748Z,92
2018-06-11T07:37:30.745Z,87
2018-06-11T07:38:32.751Z,80
2018-06-11T07:39:35.048Z,69
2018-06-11T07:40:37.446Z,62
2018-06-11T07:41:39.833Z,59
2018-06-11T07:42:41.834Z,55
2018-06-11T07:43:43.847Z,52
2018-06-11T07:44:46.116Z,55
2018-06-11T07:45:48.120Z,60
2018-06-11T07:46:50.131Z,63
2018-06-11T07:47:52.131Z,64
2018-06-11T07:48:54.133Z,70
2018-06-11T07:49:56.138Z,78
2018-06-11T07:50:58.133Z,85
2018-06-11T07:52:00.139Z,90
2018-06-11T07:53:02.136Z,95
2018-06-11T07:54:04.130Z,102
2018-06-11T07:55:06.135Z,111
2018-06-11T07:56:08.137Z,113
2018-06-11T07:57:10.143Z,112
2018-06-11T07:58:12.424Z,114
2018-06-11T07:59:14.434Z,117
2018-06-11T08:00:16.869Z,117
2018-06-11T08:01:18.897Z,116
2018-06-11T08:02:21.249Z,114
2018-06-11T08:03:23.250Z,116
2018-06-11T08:04:25.250Z,120
2018-06-11T08:05:27.247Z,122
2018-06-11T08:06:29.250Z,126
2018-06-11T08:07:31.272Z,130
2018-06-11T08:08:33.241Z,135
2018-06-11T08:09:35.246Z,136
2018-06-11T08:10:37.258Z,131
2018-06-11T08:11:39.648Z,126
2018-06-11T08:12:41.651Z,129
2018-06-11T08:13:43.653Z,138
2018-06-11T08:14:46.040Z,150
2018-06-11T08:15:48.330Z,155
2018-06-11T08:16:50.326Z,152
2018-06-11T08:17:52.621Z,139
2018-06-11T08:18:54.622Z,127
2018-06-11T08:19:56.900Z,119
2018-06-11T08:20:59.192Z,114
2018-06-11T08:22:01.477Z,116
2018-06-11T08:23:03.473Z,124
2018-06-11T08:24:05.478Z,132
2018-06-11T08:25:07.483Z,128
2018-06-11T08:26:09.491Z,129
2018-06-11T08:27:11.486Z,147
2018-06-11T08:28:13.485Z,144
2018-06-11T08:29:15.492Z,140
2018-06-11T08:30:17.497Z,140
2018-06-11T08:31:19.501Z,145
2018-06-11T08:32:21.495Z,156
2018-06-11T08:33:23.799Z,159
2018-06-11T08:34:26.189Z,158
2018-06-11T08:35:28.197Z,153
2018-06-11T08:36:30.199Z,158
2018-06-11T08:37:32.589Z,139
2018-06-11T08:38:34.590Z,136
2018-06-11T08:39:36.604Z,137
2018-06-11T08:40:38.590Z,141
2018-06-11T08:41:40.607Z,166
2018-06-11T08:42:42.606Z,149
2018-06-11T08:43:44.603Z,155
2018-06-11T08:44:46.606Z,151
2018-06-11T08:45:48.601Z,147
2018-06-11T08:46:50.886Z,384
2018-06-11T08:47:53.274Z,171
2018-06-11T08:48:55.548Z,428
2018-06-11T08:49:57.558Z,156
2018-06-11T08:50:59.553Z,134
2018-06-11T08:52:01.562Z,125
2018-06-11T08:53:03.566Z,126
2018-06-11T08:54:05.574Z,129
2018-06-11T08:55:07.578Z,144
2018-06-11T08:56:09.586Z,153
2018-06-11T08:57:11.588Z,459
2018-06-11T08:58:13.596Z,256
2018-06-11T08:59:15.877Z,446
2018-06-11T09:00:17.893Z,150
2018-06-11T09:01:20.569Z,157
2018-06-11T09:02:22.952Z,180
2018-06-11T09:03:24.956Z,164
2018-06-11T09:04:26.963Z,143
2018-06-11T09:05:28.972Z,138
2018-06-11T09:06:30.972Z,158
2018-06-11T09:07:32.964Z,130
2018-06-11T09:08:34.973Z,127
2018-06-11T09:09:36.980Z,127
2018-06-11T09:10:39.263Z,131
2018-06-11T09:11:41.267Z,393
2018-06-11T09:13:41.347Z,497
2018-06-11T09:14:43.351Z,526
2018-06-11T09:15:45.748Z,492
2018-06-11T09:16:47.748Z,490
2018-06-11T09:17:49.737Z,468
2018-06-11T09:18:51.753Z,404
2018-06-11T09:19:53.756Z,192
2018-06-11T09:20:55.761Z,183
2018-06-11T09:21:57.763Z,305
2018-06-11T09:22:59.764Z,160
2018-06-11T09:24:01.793Z,153
2018-06-11T09:25:04.167Z,161
2018-06-11T09:26:06.437Z,176
2018-06-11T09:27:08.451Z,169
2018-06-11T09:28:10.452Z,159
2018-06-11T09:29:12.739Z,146
2018-06-11T09:30:15.432Z,147
2018-06-11T09:31:17.430Z,192
2018-06-11T09:32:19.447Z,142
2018-06-11T09:33:21.449Z,136
2018-06-11T09:34:23.843Z,129
2018-06-11T09:35:25.852Z,134
2018-06-11T09:36:27.850Z,132
2018-06-11T09:37:29.854Z,140
2018-06-11T09:38:32.276Z,506
2018-06-11T09:39:34.271Z,476
2018-06-11T09:40:36.281Z,237
2018-06-11T09:41:38.577Z,282
2018-06-11T09:42:40.580Z,180
2018-06-11T09:43:42.626Z,167
2018-06-11T09:44:44.589Z,175
2018-06-11T09:45:46.878Z,196
2018-06-11T09:46:48.890Z,202
2018-06-11T09:47:51.186Z,184
2018-06-11T09:48:53.474Z,179
2018-06-11T09:49:55.751Z,181
2018-06-11T09:50:58.442Z,165
2018-06-11T09:52:00.448Z,184
2018-06-11T09:53:02.737Z,183
2018-06-11T09:54:04.743Z,524
2018-06-11T09:55:07.029Z,158
2018-06-11T09:56:09.035Z,135
2018-06-11T09:57:11.044Z,129
2018-06-11T09:58:13.049Z,126
2018-06-11T09:59:15.056Z,122
2018-06-11T10:00:17.049Z,126
2018-06-11T10:01:19.341Z,109
2018-06-11T10:02:21.348Z,115
2018-06-11T10:03:23.640Z,148
2018-06-11T10:04:25.930Z,167
2018-06-11T10:05:27.930Z,536
2018-06-11T10:06:29.940Z,515
2018-06-11T10:07:31.950Z,158
2018-06-11T10:08:33.954Z,181
2018-06-11T10:09:36.262Z,184
2018-06-11T10:10:38.931Z,169
2018-06-11T10:11:40.937Z,610
2018-06-11T10:12:42.930Z,527
2018-06-11T10:13:44.936Z,578
2018-06-11T10:14:46.954Z,582
2018-06-11T10:15:48.955Z,486
2018-06-11T10:16:51.347Z,585
2018-06-11T10:17:53.646Z,148
2018-06-11T10:18:56.034Z,137
2018-06-11T10:19:58.035Z,142
2018-06-11T10:21:00.042Z,565
2018-06-11T10:22:02.066Z,571
2018-06-11T10:23:04.367Z,597
2018-06-11T10:24:06.647Z,611
2018-06-11T10:25:09.047Z,635
2018-06-11T10:26:11.052Z,615
2018-06-11T10:27:13.062Z,265
2018-06-11T10:28:15.350Z,263
2018-06-11T10:29:17.355Z,193
2018-06-11T10:30:19.356Z,328
2018-06-11T10:31:21.759Z,633
2018-06-11T10:32:23.865Z,184
2018-06-11T10:33:25.862Z,166
2018-06-11T10:34:28.204Z,136
2018-06-11T10:35:30.253Z,140
2018-06-11T10:36:32.312Z,160
2018-06-11T10:37:34.360Z,217
2018-06-11T10:38:36.398Z,204
2018-06-11T10:39:38.455Z,201
2018-06-11T10:40:40.554Z,219
2018-06-11T10:41:42.994Z,498
2018-06-11T10:42:45.058Z,581
2018-06-11T10:43:47.159Z,567
2018-06-11T10:44:49.248Z,398
2018-06-11T10:45:51.297Z,619
2018-06-11T10:46:53.377Z,612
2018-06-11T10:47:56.081Z,597
2018-06-11T10:48:58.134Z,592
2018-06-11T10:50:00.186Z,581
2018-06-11T10:51:02.232Z,591
2018-06-11T10:52:04.280Z,676
2018-06-11T10:53:06.331Z,427
2018-06-11T10:54:08.780Z,639
2018-06-11T10:55:10.796Z,139
2018-06-11T10:56:12.797Z,156
2018-06-11T10:57:15.502Z,193
2018-06-11T10:58:17.793Z,461
2018-06-11T10:59:19.799Z,426
2018-06-11T11:00:21.812Z,540
2018-06-11T11:01:23.818Z,177
2018-06-11T11:02:25.835Z,184
2018-06-11T11:03:28.229Z,281
2018-06-11T11:04:30.290Z,146
2018-06-11T11:05:32.527Z,148
2018-06-11T11:06:34.536Z,146
2018-06-11T11:07:36.543Z,593
2018-06-11T11:08:38.551Z,599
2018-06-11T11:09:40.559Z,696
2018-06-11T11:10:42.563Z,680
2018-06-11T11:11:44.578Z,200
2018-06-11T11:12:47.003Z,150
2018-06-11T11:13:49.027Z,166
2018-06-11T11:14:51.029Z,159
2018-06-11T11:15:53.044Z,513
2018-06-11T11:16:55.054Z,207
2018-06-11T11:17:57.060Z,647
2018-06-11T11:18:59.072Z,653
2018-06-11T11:20:01.367Z,129
2018-06-11T11:21:03.366Z,142
2018-06-11T11:22:05.384Z,169
2018-06-11T11:23:07.698Z,628
2018-06-11T11:24:10.091Z,626
2018-06-11T11:25:12.103Z,613
2018-06-11T11:26:15.057Z,521
2018-06-11T11:27:17.078Z,561
2018-06-11T11:28:19.353Z,162
2018-06-11T11:29:21.360Z,143
2018-06-11T11:30:23.373Z,171
2018-06-11T11:31:26.062Z,152
2018-06-11T11:32:28.354Z,159
2018-06-11T11:33:30.748Z,605
2018-06-11T11:34:33.047Z,156
2018-06-11T11:35:35.054Z,581
2018-06-11T11:36:37.340Z,284
2018-06-11T11:37:39.745Z,380
2018-06-11T11:38:41.755Z,592
2018-06-11T11:39:43.774Z,649
2018-06-11T11:40:45.784Z,187
2018-06-11T11:41:47.795Z,694
2018-06-11T11:42:49.813Z,615
2018-06-11T11:43:51.824Z,643
2018-06-11T11:44:53.828Z,672
2018-06-11T11:45:55.840Z,703
2018-06-11T11:46:58.127Z,618
2018-06-11T11:48:00.421Z,650
2018-06-11T11:49:02.430Z,688
2018-06-11T11:50:04.434Z,720
2018-06-11T11:51:06.796Z,686
2018-06-11T11:52:08.747Z,212
2018-06-11T11:53:10.756Z,150
2018-06-11T11:54:12.773Z,176
2018-06-11T11:55:14.782Z,465
2018-06-11T11:56:16.798Z,608
2018-06-11T11:57:18.805Z,591
2018-06-11T11:58:21.420Z,560
2018-06-11T11:59:23.571Z,603
2018-06-11T12:00:25.965Z,674
2018-06-11T12:01:28.384Z,651
2018-06-11T12:02:30.398Z,649
2018-06-11T12:03:34.662Z,654
2018-06-11T12:04:39.476Z,569
2018-06-11T12:05:44.422Z,562
2018-06-11T12:06:48.812Z,602
2018-06-11T12:07:53.225Z,578
2018-06-11T12:08:58.115Z,231
2018-06-11T12:10:03.955Z,665
2018-06-11T12:11:08.418Z,642
2018-06-11T12:12:14.080Z,145
2018-06-11T12:13:19.589Z,404
2018-06-11T12:14:23.392Z,166
2018-06-11T12:15:28.239Z,199
2018-06-11T12:16:32.957Z,634
2018-06-11T12:17:36.233Z,396
2018-06-11T12:18:40.070Z,575
2018-06-11T12:19:43.470Z,614
2018-06-11T12:20:48.730Z,603
2018-06-11T12:21:53.392Z,431
2018-06-11T12:22:57.296Z,506
2018-06-11T12:24:01.430Z,528
2018-06-11T12:25:06.981Z,540
2018-06-11T12:26:12.385Z,174
2018-06-11T12:27:15.582Z,542
2018-06-11T12:28:19.539Z,551
2018-06-11T12:29:22.358Z,593
2018-06-11T12:30:26.767Z,405
2018-06-11T12:31:30.565Z,139
2018-06-11T12:32:33.154Z,562
2018-06-11T12:33:35.767Z,507
2018-06-11T12:34:38.561Z,319
2018-06-11T12:35:42.598Z,479
2018-06-11T12:36:47.325Z,514
2018-06-11T12:37:50.177Z,526
2018-06-11T12:38:54.043Z,523
2018-06-11T12:39:58.333Z,552
2018-06-11T12:41:02.215Z,538
2018-06-11T12:42:06.602Z,197
2018-06-11T12:43:10.732Z,545
2018-06-11T12:44:16.093Z,232
2018-06-11T12:45:19.991Z,174
2018-06-11T12:46:23.994Z,170
2018-06-11T12:47:27.046Z,134
2018-06-11T12:48:30.126Z,138
2018-06-11T12:49:36.005Z,187
2018-06-11T12:50:41.444Z,535
2018-06-11T12:51:46.554Z,547
2018-06-11T12:52:51.720Z,227
2018-06-11T12:53:57.390Z,175
2018-06-11T12:55:00.159Z,405
2018-06-11T12:56:03.188Z,140
2018-06-11T12:57:06.744Z,518
2018-06-11T12:58:10.532Z,552
2018-06-11T12:59:15.147Z,579
2018-06-11T13:00:20.438Z,518
2018-06-11T13:01:24.945Z,521
2018-06-11T13:02:30.809Z,184
2018-06-11T13:03:35.028Z,165
2018-06-11T13:04:38.676Z,246
2018-06-11T13:05:42.392Z,519
2018-06-11T13:06:45.928Z,503
2018-06-11T13:07:49.490Z,462
2018-06-11T13:08:53.694Z,459
2018-06-11T13:09:57.415Z,402
2018-06-11T13:10:59.487Z,425
2018-06-11T13:12:01.831Z,482
2018-06-11T13:13:04.251Z,488
2018-06-11T13:14:06.349Z,177
2018-06-11T13:15:08.369Z,341
2018-06-11T13:16:10.429Z,412
2018-06-11T13:17:12.491Z,185
2018-06-11T13:18:14.540Z,439
2018-06-11T13:19:16.611Z,390
2018-06-11T13:20:18.944Z,467
2018-06-11T13:21:21.109Z,139
2018-06-11T13:22:23.176Z,386
2018-06-11T13:23:25.229Z,494
2018-06-11T13:24:27.291Z,506
2018-06-11T13:25:29.354Z,482
2018-06-11T13:26:31.410Z,526
2018-06-11T13:27:33.486Z,491
2018-06-11T13:28:35.526Z,430
2018-06-11T13:29:37.588Z,437
2018-06-11T13:30:39.725Z,396
2018-06-11T13:31:41.705Z,264
2018-06-11T13:32:43.761Z,374
2018-06-11T13:33:46.201Z,193
2018-06-11T13:34:48.544Z,331
2018-06-11T13:35:50.609Z,309
2018-06-11T13:36:52.683Z,387
2018-06-11T13:37:54.741Z,417
2018-06-11T13:38:56.818Z,417
2018-06-11T13:39:58.909Z,202
2018-06-11T13:41:00.984Z,479
2018-06-11T13:42:03.477Z,292
2018-06-11T13:43:05.810Z,159
2018-06-11T13:44:07.867Z,389
2018-06-11T13:45:10.761Z,414
2018-06-11T13:46:12.815Z,238
2018-06-11T13:47:15.151Z,178
2018-06-11T13:48:17.209Z,154
2018-06-11T13:49:19.344Z,360
2018-06-11T13:50:21.389Z,276
2018-06-11T13:51:23.450Z,245
2018-06-11T13:52:26.100Z,264
2018-06-11T13:53:28.156Z,251
2018-06-11T13:54:30.214Z,165
2018-06-11T13:55:32.558Z,140
2018-06-11T13:56:34.624Z,139
2018-06-11T13:57:36.683Z,135
2018-06-11T13:58:38.732Z,135
2018-06-11T13:59:41.680Z,142
2018-06-11T14:00:43.785Z,279
2018-06-11T14:01:46.212Z,181
2018-06-11T14:02:48.269Z,145
2018-06-11T14:03:50.331Z,119
2018-06-11T14:04:52.386Z,174
2018-06-11T14:05:54.824Z,226
2018-06-11T14:06:56.880Z,224
2018-06-11T14:07:58.938Z,232
2018-06-11T14:09:00.997Z,204
2018-06-11T14:10:03.060Z,128
2018-06-11T14:11:05.415Z,279
2018-06-11T14:12:07.754Z,271
2018-06-11T14:13:09.815Z,345
2018-06-11T14:14:11.870Z,389
2018-06-11T14:15:13.922Z,387
2018-06-11T14:16:16.368Z,364
2018-06-11T14:17:18.433Z,365
2018-06-11T14:18:20.869Z,360
2018-06-11T14:19:23.454Z,377
2018-06-11T14:20:25.459Z,379
2018-06-11T14:21:27.518Z,382
2018-06-11T14:22:29.576Z,340
2018-06-11T14:23:31.634Z,349
2018-06-11T14:24:33.699Z,370
2018-06-11T14:25:35.745Z,391
2018-06-11T14:26:38.477Z,403
2018-06-11T14:27:40.537Z,105
2018-06-11T14:28:43.006Z,269
2018-06-11T14:29:45.717Z,334
2018-06-11T14:30:48.079Z,419
2018-06-11T14:31:50.135Z,430
2018-06-11T14:32:52.198Z,415
2018-06-11T14:33:54.248Z,372
2018-06-11T14:34:56.320Z,376
2018-06-11T14:35:58.381Z,365
2018-06-11T14:37:00.435Z,402
2018-06-11T14:38:03.066Z,405
2018-06-11T14:39:05.129Z,146
2018-06-11T14:40:07.190Z,386
2018-06-11T14:41:09.288Z,401
2018-06-11T14:42:11.608Z,391
2018-06-11T14:43:13.673Z,367